createdAt,value
2023-01-19T00:01:32.686Z,100162.16
2023-01-19T00:04:00.313Z,100168.56
2023-01-19T00:06:27.963Z,100169.66
2023-01-19T00:08:55.426Z,100164.38
2023-01-19T00:11:22.738Z,100174.06
2023-01-19T00:13:51.211Z,100181.75
2023-01-19T00:16:20.151Z,100179.59
2023-01-19T00:18:48.272Z,100193.03
2023-01-19T00:21:15.926Z,100186.13
2023-01-19T00:23:44.045Z,100187.19
2023-01-19T00:26:11.970Z,100182.41
2023-01-19T00:28:39.520Z,100179.78
2023-01-19T00:31:06.909Z,100190.56
2023-01-19T00:33:34.419Z,100186.47
2023-01-19T00:36:02.015Z,100181.16
2023-01-19T00:38:29.889Z,100177.22
2023-01-19T00:40:57.306Z,100173.34
2023-01-19T00:43:25.904Z,100177.84
2023-01-19T00:45:53.618Z,100186.78
2023-01-19T00:48:20.983Z,100192.81
2023-01-19T00:50:49.446Z,100190.75
2023-01-19T00:53:16.904Z,100193.53
2023-01-19T00:55:44.417Z,100198.69
2023-01-19T00:58:12.089Z,100196.00
2023-01-19T01:00:39.745Z,100188.63
2023-01-19T01:03:07.203Z,100192.41
2023-01-19T01:05:34.954Z,100199.41
2023-01-19T01:08:02.468Z,100209.34
2023-01-19T01:10:30.108Z,100211.38
2023-01-19T01:12:58.674Z,100219.31
2023-01-19T01:15:27.784Z,100213.44
2023-01-19T01:17:56.181Z,100227.59
2023-01-19T01:20:28.207Z,100236.53
2023-01-19T01:22:56.752Z,100231.41
2023-01-19T01:25:25.637Z,100234.03
2023-01-19T01:27:54.007Z,100234.69
2023-01-19T01:30:22.006Z,100235.19
2023-01-19T01:32:49.759Z,100234.13
2023-01-19T01:35:17.477Z,100239.28
2023-01-19T01:37:45.263Z,100241.72
2023-01-19T01:40:14.860Z,100249.63
2023-01-19T01:42:43.043Z,100254.50
2023-01-19T01:45:38.420Z,100252.88
2023-01-19T01:48:22.435Z,100258.31
2023-01-19T01:51:25.282Z,100260.22
2023-01-19T01:54:09.300Z,100267.25
2023-01-19T01:56:39.896Z,100267.75
2023-01-19T01:59:11.648Z,100265.19
2023-01-19T02:01:58.358Z,100268.75
2023-01-19T02:04:27.508Z,100265.78
2023-01-19T02:07:13.572Z,100273.69
2023-01-19T02:09:59.743Z,100275.50
2023-01-19T02:12:45.873Z,100264.34
2023-01-19T02:15:20.420Z,100272.91
2023-01-19T02:17:48.295Z,100274.78
2023-01-19T02:20:16.236Z,100273.22
2023-01-19T02:22:49.597Z,100267.78
2023-01-19T02:25:19.403Z,100280.16
2023-01-19T02:27:47.501Z,100287.31
2023-01-19T02:30:17.098Z,100293.81
2023-01-19T02:32:44.716Z,100281.25
2023-01-19T02:35:12.738Z,100277.94
2023-01-19T02:37:40.621Z,100286.75
2023-01-19T02:40:13.707Z,100281.84
2023-01-19T02:42:44.575Z,100272.75
2023-01-19T02:45:14.568Z,100278.22
2023-01-19T02:47:46.061Z,100269.09
2023-01-19T02:50:41.478Z,100271.47
2023-01-19T02:53:30.187Z,100270.09
2023-01-19T02:56:12.130Z,100262.66
2023-01-19T02:59:04.231Z,100270.03
2023-01-19T03:02:01.535Z,100262.59
2023-01-19T03:04:39.337Z,100261.25
2023-01-19T03:07:33.504Z,100263.56
2023-01-19T03:10:09.043Z,100260.75
2023-01-19T03:12:52.909Z,100269.88
2023-01-19T03:15:32.218Z,100278.97
2023-01-19T03:18:01.679Z,100273.88
2023-01-19T03:20:29.427Z,100272.75
2023-01-19T03:23:02.526Z,100272.50
2023-01-19T03:25:32.071Z,100256.88
2023-01-19T03:27:59.986Z,100272.66
2023-01-19T03:30:40.451Z,100268.06
2023-01-19T03:33:15.280Z,100266.13
2023-01-19T03:35:47.263Z,100271.28
2023-01-19T03:38:22.418Z,100278.28
2023-01-19T03:40:50.413Z,100272.50
2023-01-19T03:43:19.111Z,100278.44
2023-01-19T03:45:46.910Z,100276.22
2023-01-19T03:48:14.520Z,100283.81
2023-01-19T03:50:42.117Z,100278.78
2023-01-19T03:53:11.525Z,100284.75
2023-01-19T03:55:41.663Z,100271.81
2023-01-19T03:58:09.474Z,100275.53
2023-01-19T04:00:37.291Z,100285.03
2023-01-19T04:03:06.607Z,100279.56
2023-01-19T04:05:34.216Z,100288.91
2023-01-19T04:08:01.827Z,100285.34
2023-01-19T04:10:29.373Z,100284.16
2023-01-19T04:13:02.630Z,100287.38
2023-01-19T04:15:30.792Z,100276.75
2023-01-19T04:18:03.116Z,100279.56
2023-01-19T04:20:30.793Z,100280.41
2023-01-19T04:23:02.123Z,100277.38
2023-01-19T04:25:29.891Z,100276.50
2023-01-19T04:28:00.518Z,100277.47
2023-01-19T04:30:28.142Z,100280.66
2023-01-19T04:32:56.350Z,100274.94
2023-01-19T04:35:24.013Z,100268.66
2023-01-19T04:37:51.369Z,100279.50
2023-01-19T04:40:21.965Z,100277.53
2023-01-19T04:42:51.028Z,100272.16
2023-01-19T04:45:18.658Z,100280.09
2023-01-19T04:47:46.204Z,100277.59
2023-01-19T04:50:13.733Z,100275.50
2023-01-19T04:52:41.164Z,100279.56
2023-01-19T04:55:09.050Z,100283.91
2023-01-19T04:57:36.548Z,100290.78
2023-01-19T05:00:06.841Z,100288.03
2023-01-19T05:02:34.883Z,100289.34
2023-01-19T05:05:02.890Z,100284.84
2023-01-19T05:07:30.412Z,100284.88
2023-01-19T05:09:57.861Z,100285.19
2023-01-19T05:12:25.490Z,100282.72
2023-01-19T05:14:52.961Z,100284.63
2023-01-19T05:17:20.664Z,100289.78
2023-01-19T05:19:48.955Z,100288.97
2023-01-19T05:22:16.828Z,100288.66
2023-01-19T05:24:44.298Z,100289.25
2023-01-19T05:27:12.033Z,100286.25
2023-01-19T05:29:39.520Z,100290.53
2023-01-19T05:32:07.249Z,100286.16
2023-01-19T05:34:35.062Z,100290.53
2023-01-19T05:37:03.151Z,100296.06
2023-01-19T05:39:30.870Z,100290.09
2023-01-19T05:41:58.476Z,100289.53
2023-01-19T05:44:25.981Z,100287.66
2023-01-19T05:46:54.344Z,100294.94
2023-01-19T05:49:21.663Z,100293.88
2023-01-19T05:51:49.097Z,100290.06
2023-01-19T05:54:16.503Z,100288.97
2023-01-19T05:56:43.942Z,100292.44
2023-01-19T05:59:11.371Z,100289.25
2023-01-19T06:01:39.921Z,100297.63
2023-01-19T06:04:07.798Z,100292.13
2023-01-19T06:06:35.685Z,100291.91
2023-01-19T06:09:03.060Z,100297.94
2023-01-19T06:11:30.355Z,100288.72
2023-01-19T06:13:57.712Z,100303.19
2023-01-19T06:16:25.182Z,100292.81
2023-01-19T06:18:53.636Z,100297.16
2023-01-19T06:21:20.923Z,100298.22
2023-01-19T06:23:48.495Z,100293.34
2023-01-19T06:26:16.221Z,100301.22
2023-01-19T06:28:43.564Z,100309.91
2023-01-19T06:31:10.815Z,100298.19
2023-01-19T06:33:38.200Z,100297.34
2023-01-19T06:36:05.815Z,100306.06
2023-01-19T06:38:33.156Z,100311.56
2023-01-19T06:41:02.695Z,100314.53
2023-01-19T06:43:31.315Z,100313.72
2023-01-19T06:46:00.794Z,100316.66
2023-01-19T06:48:28.440Z,100316.06
2023-01-19T06:50:58.453Z,100320.50
2023-01-19T06:53:28.162Z,100316.66
2023-01-19T06:56:02.749Z,100315.03
2023-01-19T06:58:32.339Z,100318.88
2023-01-19T07:01:04.400Z,100320.78
2023-01-19T07:03:32.543Z,100316.97
2023-01-19T07:06:04.218Z,100316.72
2023-01-19T07:08:31.599Z,100318.91
2023-01-19T07:11:25.071Z,100312.88
2023-01-19T07:13:51.640Z,100316.19
2023-01-19T07:16:19.267Z,100315.38
2023-01-19T07:18:48.885Z,100303.09
2023-01-19T07:21:16.170Z,100306.91
2023-01-19T07:23:43.614Z,100313.09
2023-01-19T07:26:11.261Z,100311.22
2023-01-19T07:28:38.711Z,100316.72
2023-01-19T07:31:06.570Z,100302.22
2023-01-19T07:33:34.034Z,100310.09
2023-01-19T07:36:01.600Z,100316.78
2023-01-19T07:38:28.923Z,100317.28
2023-01-19T07:41:03.850Z,100319.13
2023-01-19T07:43:32.290Z,100323.47
2023-01-19T07:46:00.843Z,100328.28
2023-01-19T07:48:28.457Z,100328.22
2023-01-19T07:51:18.036Z,100327.25
2023-01-19T07:53:45.837Z,100331.16
2023-01-19T07:56:13.338Z,100329.69
2023-01-19T07:58:41.352Z,100337.97
2023-01-19T08:01:10.608Z,100334.44
2023-01-19T08:03:38.446Z,100344.19
2023-01-19T08:06:06.281Z,100336.91
2023-01-19T08:08:34.303Z,100339.41
2023-01-19T08:11:01.693Z,100345.34
2023-01-19T08:13:29.002Z,100345.66
2023-01-19T08:15:56.328Z,100346.09
2023-01-19T08:18:23.846Z,100349.66
2023-01-19T08:20:51.382Z,100352.13
2023-01-19T08:23:19.768Z,100353.75
2023-01-19T08:25:47.459Z,100358.38
2023-01-19T08:28:16.271Z,100354.56
2023-01-19T08:30:44.921Z,100357.56
2023-01-19T08:33:13.095Z,100356.22
2023-01-19T08:35:42.370Z,100356.47
2023-01-19T08:38:10.435Z,100362.47
2023-01-19T08:40:39.721Z,100352.66
2023-01-19T08:43:09.585Z,100354.56
2023-01-19T08:45:38.134Z,100355.91
2023-01-19T08:48:06.395Z,100353.22
2023-01-19T08:50:34.994Z,100360.25
2023-01-19T08:53:04.559Z,100357.78
2023-01-19T08:55:31.885Z,100358.09
2023-01-19T08:58:00.385Z,100359.47
2023-01-19T09:00:28.060Z,100360.22
2023-01-19T09:02:56.584Z,100366.75
2023-01-19T09:05:24.233Z,100367.81
2023-01-19T09:07:51.795Z,100373.31
2023-01-19T09:10:19.366Z,100371.06
2023-01-19T09:12:46.946Z,100370.75
2023-01-19T09:15:14.406Z,100367.56
2023-01-19T09:17:42.420Z,100374.94
2023-01-19T09:20:10.591Z,100373.00
2023-01-19T09:22:39.692Z,100371.31
2023-01-19T09:25:08.389Z,100361.97
2023-01-19T09:27:36.073Z,100364.47
2023-01-19T09:30:05.325Z,100361.03
2023-01-19T09:32:32.824Z,100356.59
2023-01-19T09:35:00.360Z,100368.34
2023-01-19T09:37:27.630Z,100365.59
2023-01-19T09:39:55.047Z,100364.53
2023-01-19T09:42:42.901Z,100360.13
2023-01-19T09:45:50.143Z,100369.88
2023-01-19T09:48:27.104Z,100370.91
2023-01-19T09:50:56.847Z,100368.69
2023-01-19T09:53:40.485Z,100371.78
2023-01-19T09:56:12.316Z,100371.78
2023-01-19T09:58:40.640Z,100372.84
2023-01-19T10:01:23.695Z,100372.03
2023-01-19T10:04:00.149Z,100374.53
2023-01-19T10:06:27.785Z,100377.34
2023-01-19T10:09:06.388Z,100369.66
2023-01-19T10:11:51.892Z,100374.06
2023-01-19T10:14:30.878Z,100375.94
2023-01-19T10:17:06.010Z,100377.34
2023-01-19T10:19:37.984Z,100375.75
2023-01-19T10:22:24.067Z,100375.16
2023-01-19T10:25:00.852Z,100369.97
2023-01-19T10:27:32.585Z,100376.94
2023-01-19T10:30:01.314Z,100365.72
2023-01-19T10:32:35.740Z,100370.56
2023-01-19T10:35:21.857Z,100358.34
2023-01-19T10:37:49.778Z,100361.25
2023-01-19T10:40:47.814Z,100351.38
2023-01-19T10:43:34.021Z,100346.97
2023-01-19T10:46:05.991Z,100342.22
2023-01-19T10:48:40.542Z,100337.00
2023-01-19T10:51:09.222Z,100344.81
2023-01-19T10:53:37.078Z,100342.38
2023-01-19T10:56:22.690Z,100342.59
2023-01-19T10:58:50.541Z,100336.28
2023-01-19T11:01:19.259Z,100339.66
2023-01-19T11:03:46.821Z,100336.00
2023-01-19T11:06:14.883Z,100334.25
2023-01-19T11:08:44.337Z,100331.47
2023-01-19T11:11:12.567Z,100332.16
2023-01-19T11:13:40.799Z,100327.94
2023-01-19T11:16:12.627Z,100327.16
2023-01-19T11:18:40.729Z,100326.06
2023-01-19T11:21:10.940Z,100321.47
2023-01-19T11:23:46.385Z,100320.72
2023-01-19T11:26:24.320Z,100322.09
2023-01-19T11:28:54.594Z,100318.78
2023-01-19T11:31:31.464Z,100318.63
2023-01-19T11:34:01.063Z,100311.22
2023-01-19T11:36:31.204Z,100312.63
2023-01-19T11:39:24.643Z,100316.94
2023-01-19T11:41:56.225Z,100315.31
2023-01-19T11:44:35.584Z,100309.75
2023-01-19T11:47:12.352Z,100304.16
2023-01-19T11:49:56.170Z,100305.25
2023-01-19T11:52:38.805Z,100291.22
2023-01-19T11:55:46.293Z,100296.53
2023-01-19T11:58:15.657Z,100293.69
2023-01-19T12:00:50.532Z,100283.94
2023-01-19T12:03:24.428Z,100278.06
2023-01-19T12:05:53.388Z,100281.19
2023-01-19T12:08:30.065Z,100276.84
2023-01-19T12:10:59.063Z,100283.03
2023-01-19T12:13:27.873Z,100281.06
2023-01-19T12:15:59.708Z,100275.59
2023-01-19T12:18:34.001Z,100265.72
2023-01-19T12:21:03.834Z,100260.59
2023-01-19T12:23:53.373Z,100260.69
2023-01-19T12:26:33.003Z,100253.31
2023-01-19T12:29:22.999Z,100252.94
2023-01-19T12:32:16.731Z,100249.13
2023-01-19T12:34:52.023Z,100242.31
2023-01-19T12:37:31.432Z,100236.91
2023-01-19T12:40:21.263Z,100233.31
2023-01-19T12:42:56.802Z,100243.22
2023-01-19T12:45:25.973Z,100237.03
2023-01-19T12:47:53.642Z,100234.41
2023-01-19T12:50:24.155Z,100236.09
2023-01-19T12:52:58.449Z,100237.53
2023-01-19T12:55:31.576Z,100230.59
2023-01-19T12:58:15.231Z,100231.97
2023-01-19T13:00:44.369Z,100229.06
2023-01-19T13:03:17.695Z,100227.22
2023-01-19T13:05:45.044Z,100232.44
2023-01-19T13:08:17.590Z,100235.69
2023-01-19T13:11:00.712Z,100220.47
2023-01-19T13:13:33.148Z,100223.91
2023-01-19T13:16:27.659Z,100221.72
2023-01-19T13:19:16.799Z,100224.16
2023-01-19T13:21:48.468Z,100224.25
2023-01-19T13:24:22.739Z,100219.97
2023-01-19T13:26:50.132Z,100210.00
2023-01-19T13:29:30.240Z,100214.19
2023-01-19T13:32:05.125Z,100215.41
2023-01-19T13:34:52.202Z,100208.25
2023-01-19T13:37:24.317Z,100206.69
2023-01-19T13:39:53.291Z,100205.13
2023-01-19T13:42:38.128Z,100209.06
2023-01-19T13:45:34.491Z,100204.44
2023-01-19T13:48:05.181Z,100200.88
2023-01-19T13:50:35.914Z,100205.19
2023-01-19T13:53:04.996Z,100208.38
2023-01-19T13:55:32.457Z,100205.03
2023-01-19T13:57:59.857Z,100195.88
2023-01-19T14:00:29.652Z,100195.13
2023-01-19T14:03:21.572Z,100198.91
2023-01-19T14:05:55.607Z,100193.19
2023-01-19T14:08:23.514Z,100197.94
2023-01-19T14:10:53.881Z,100194.91
2023-01-19T14:13:33.199Z,100196.00
2023-01-19T14:16:20.804Z,100179.84
2023-01-19T14:18:59.431Z,100188.63
2023-01-19T14:21:38.014Z,100183.00
2023-01-19T14:24:09.409Z,100192.28
2023-01-19T14:26:48.430Z,100189.56
2023-01-19T14:29:17.322Z,100198.16
2023-01-19T14:31:47.628Z,100199.31
2023-01-19T14:34:34.288Z,100189.38
2023-01-19T14:37:03.183Z,100195.81
2023-01-19T14:39:35.314Z,100195.69
2023-01-19T14:42:05.557Z,100194.09
2023-01-19T14:44:36.667Z,100192.78
2023-01-19T14:47:05.278Z,100188.97
2023-01-19T14:49:35.965Z,100185.66
2023-01-19T14:52:07.951Z,100196.75
2023-01-19T14:54:38.502Z,100196.38
2023-01-19T14:57:08.913Z,100201.53
2023-01-19T14:59:36.476Z,100204.53
2023-01-19T15:02:04.091Z,100195.00
2023-01-19T15:04:31.733Z,100202.38
2023-01-19T15:06:59.138Z,100190.34
2023-01-19T15:09:27.005Z,100185.06
2023-01-19T15:11:54.444Z,100189.31
2023-01-19T15:14:22.219Z,100195.28
2023-01-19T15:16:49.909Z,100190.22
2023-01-19T15:19:18.031Z,100199.72
2023-01-19T15:21:47.012Z,100198.25
2023-01-19T15:24:16.346Z,100202.38
2023-01-19T15:26:45.386Z,100196.72
2023-01-19T15:29:20.897Z,100208.66
2023-01-19T15:31:48.421Z,100214.19
2023-01-19T15:34:16.072Z,100214.16
2023-01-19T15:36:43.912Z,100214.88
2023-01-19T15:39:11.702Z,100208.31
2023-01-19T15:41:40.189Z,100213.72
2023-01-19T15:44:10.800Z,100220.34
2023-01-19T15:46:40.017Z,100214.97
2023-01-19T15:49:07.715Z,100216.94
2023-01-19T15:51:37.694Z,100222.09
2023-01-19T15:54:08.971Z,100223.69
2023-01-19T15:56:36.229Z,100219.53
2023-01-19T15:59:04.273Z,100216.19
2023-01-19T16:01:33.904Z,100213.59
2023-01-19T16:04:03.462Z,100220.41
2023-01-19T16:06:31.228Z,100224.06
2023-01-19T16:09:01.855Z,100230.56
2023-01-19T16:11:34.173Z,100226.56
2023-01-19T16:14:01.769Z,100226.16
2023-01-19T16:16:29.246Z,100231.91
2023-01-19T16:18:57.773Z,100239.28
2023-01-19T16:21:25.477Z,100238.16
2023-01-19T16:23:53.295Z,100240.84
2023-01-19T16:26:35.176Z,100244.59
2023-01-19T16:29:08.630Z,100236.59
2023-01-19T16:31:37.466Z,100241.75
2023-01-19T16:34:04.965Z,100243.91
2023-01-19T16:36:33.687Z,100245.66
2023-01-19T16:39:02.931Z,100249.25
2023-01-19T16:41:30.248Z,100251.59
2023-01-19T16:43:58.228Z,100255.59
2023-01-19T16:46:28.014Z,100247.13
2023-01-19T16:48:59.961Z,100255.50
2023-01-19T16:51:27.466Z,100260.97
2023-01-19T16:53:54.906Z,100259.50
2023-01-19T16:56:22.364Z,100262.38
2023-01-19T16:58:56.746Z,100263.09
2023-01-19T17:01:25.483Z,100265.22
2023-01-19T17:03:53.300Z,100272.97
2023-01-19T17:06:24.988Z,100260.47
2023-01-19T17:08:52.934Z,100265.44
2023-01-19T17:11:24.174Z,100269.00
2023-01-19T17:13:57.077Z,100272.53
2023-01-19T17:16:25.032Z,100275.69
2023-01-19T17:18:53.092Z,100284.66
2023-01-19T17:21:20.659Z,100290.53
2023-01-19T17:23:50.199Z,100280.97
2023-01-19T17:26:18.402Z,100286.16
2023-01-19T17:28:46.637Z,100278.31
2023-01-19T17:31:19.561Z,100283.72
2023-01-19T17:33:49.228Z,100282.91
2023-01-19T17:36:22.554Z,100292.38
2023-01-19T17:38:50.473Z,100291.28
2023-01-19T17:41:20.071Z,100292.69
2023-01-19T17:43:47.819Z,100294.09
2023-01-19T17:46:15.271Z,100292.88
2023-01-19T17:48:42.539Z,100291.78
2023-01-19T17:51:12.138Z,100299.28
2023-01-19T17:53:41.130Z,100304.47
2023-01-19T17:56:10.612Z,100308.66
2023-01-19T17:58:38.526Z,100300.97
2023-01-19T18:01:24.885Z,100311.41
2023-01-19T18:03:52.990Z,100312.81
2023-01-19T18:06:20.487Z,100300.72
2023-01-19T18:08:48.932Z,100314.47
2023-01-19T18:11:19.236Z,100314.28
2023-01-19T18:13:48.378Z,100328.28
2023-01-19T18:16:18.415Z,100325.25
2023-01-19T18:18:45.761Z,100330.72
2023-01-19T18:21:14.401Z,100329.25
2023-01-19T18:23:45.872Z,100336.38
2023-01-19T18:26:17.828Z,100333.38
2023-01-19T18:28:45.911Z,100333.94
2023-01-19T18:31:20.274Z,100332.28
2023-01-19T18:34:03.204Z,100331.94
2023-01-19T18:36:32.645Z,100335.19
2023-01-19T18:39:01.716Z,100330.81
2023-01-19T18:41:29.876Z,100340.66
2023-01-19T18:43:58.886Z,100345.16
2023-01-19T18:46:27.617Z,100358.25
2023-01-19T18:48:56.832Z,100355.31
2023-01-19T18:51:24.256Z,100359.75
2023-01-19T18:53:51.844Z,100357.13
2023-01-19T18:56:19.570Z,100362.22
2023-01-19T18:58:46.899Z,100362.09
2023-01-19T19:01:25.022Z,100367.66
2023-01-19T19:03:53.336Z,100377.16
2023-01-19T19:06:21.389Z,100381.69
2023-01-19T19:08:50.310Z,100387.75
2023-01-19T19:11:19.101Z,100386.16
2023-01-19T19:13:46.590Z,100383.03
2023-01-19T19:16:14.717Z,100389.81
2023-01-19T19:18:42.496Z,100394.50
2023-01-19T19:21:11.469Z,100397.22
2023-01-19T19:23:38.880Z,100398.59
2023-01-19T19:26:08.136Z,100400.75
2023-01-19T19:28:36.751Z,100406.97
2023-01-19T19:31:05.120Z,100402.03
2023-01-19T19:33:32.900Z,100413.16
2023-01-19T19:36:00.638Z,100410.50
2023-01-19T19:38:28.275Z,100410.22
2023-01-19T19:40:57.412Z,100418.44
2023-01-19T19:43:25.102Z,100401.56
2023-01-19T19:46:09.704Z,100412.84
2023-01-19T19:48:39.202Z,100413.22
2023-01-19T19:51:18.472Z,100414.59
2023-01-19T19:53:47.891Z,100423.44
2023-01-19T19:56:16.363Z,100427.56
2023-01-19T19:58:43.669Z,100430.75
2023-01-19T20:01:26.772Z,100431.25
2023-01-19T20:03:54.884Z,100438.06
2023-01-19T20:06:24.432Z,100428.00
2023-01-19T20:08:53.610Z,100432.09
2023-01-19T20:11:23.650Z,100440.25
2023-01-19T20:13:50.990Z,100446.50
2023-01-19T20:16:20.635Z,100449.00
2023-01-19T20:18:53.892Z,100450.06
2023-01-19T20:21:26.878Z,100457.44
2023-01-19T20:23:55.549Z,100466.41
2023-01-19T20:26:26.543Z,100474.00
2023-01-19T20:28:55.137Z,100480.50
2023-01-19T20:31:24.910Z,100479.19
2023-01-19T20:33:53.185Z,100487.31
2023-01-19T20:36:24.458Z,100484.88
2023-01-19T20:38:53.500Z,100495.00
2023-01-19T20:41:22.233Z,100502.59
2023-01-19T20:43:50.047Z,100510.50
2023-01-19T20:46:17.425Z,100502.81
2023-01-19T20:48:46.533Z,100508.88
2023-01-19T20:51:13.899Z,100522.50
2023-01-19T20:53:41.635Z,100517.59
2023-01-19T20:56:14.291Z,100528.22
2023-01-19T20:58:41.898Z,100529.22
2023-01-19T21:01:13.911Z,100522.69
2023-01-19T21:03:42.026Z,100530.09
2023-01-19T21:06:10.354Z,100533.38
2023-01-19T21:08:37.984Z,100536.38
2023-01-19T21:11:06.124Z,100540.31
2023-01-19T21:13:34.115Z,100549.31
2023-01-19T21:16:01.944Z,100557.00
2023-01-19T21:18:29.234Z,100561.09
2023-01-19T21:20:57.639Z,100555.34
2023-01-19T21:23:28.567Z,100557.75
2023-01-19T21:25:58.063Z,100564.84
2023-01-19T21:28:26.823Z,100566.69
2023-01-19T21:30:54.954Z,100577.06
2023-01-19T21:33:22.547Z,100580.66
2023-01-19T21:35:51.985Z,100583.72
2023-01-19T21:38:20.214Z,100585.38
2023-01-19T21:40:47.795Z,100590.59
2023-01-19T21:43:15.125Z,100593.59
2023-01-19T21:45:43.176Z,100596.56
2023-01-19T21:48:10.797Z,100591.94
2023-01-19T21:50:38.769Z,100595.44
2023-01-19T21:53:09.245Z,100609.50
2023-01-19T21:55:37.318Z,100612.78
2023-01-19T21:58:05.044Z,100614.00
2023-01-19T22:00:32.715Z,100616.72
2023-01-19T22:03:04.198Z,100618.63
2023-01-19T22:05:36.967Z,100622.84
2023-01-19T22:08:06.340Z,100622.09
2023-01-19T22:10:39.717Z,100627.59
2023-01-19T22:13:07.885Z,100629.75
2023-01-19T22:15:38.314Z,100631.66
2023-01-19T22:18:06.955Z,100635.41
2023-01-19T22:20:34.471Z,100647.81
2023-01-19T22:23:01.785Z,100648.31
2023-01-19T22:25:29.232Z,100650.25
2023-01-19T22:27:57.621Z,100652.19
2023-01-19T22:30:25.169Z,100660.91
2023-01-19T22:32:53.176Z,100666.88
2023-01-19T22:35:21.341Z,100674.75
2023-01-19T22:37:48.972Z,100680.19
2023-01-19T22:40:16.762Z,100678.81
2023-01-19T22:42:48.248Z,100681.25
2023-01-19T22:45:16.060Z,100690.81
2023-01-19T22:47:43.403Z,100692.09
2023-01-19T22:50:10.905Z,100693.75
2023-01-19T22:52:38.267Z,100692.38
2023-01-19T22:55:06.056Z,100703.38
2023-01-19T22:57:36.693Z,100708.41
2023-01-19T23:00:07.119Z,100714.03
2023-01-19T23:02:34.790Z,100719.50
2023-01-19T23:05:01.994Z,100728.38
2023-01-19T23:07:29.397Z,100730.66
2023-01-19T23:09:56.745Z,100741.75
2023-01-19T23:12:24.132Z,100744.16
2023-01-19T23:14:51.525Z,100748.78
2023-01-19T23:17:18.954Z,100749.34
2023-01-19T23:19:46.251Z,100748.69
2023-01-19T23:22:13.716Z,100757.50
2023-01-19T23:24:41.094Z,100758.97
2023-01-19T23:27:08.424Z,100768.47
2023-01-19T23:29:36.272Z,100769.88
2023-01-19T23:32:03.750Z,100766.53
2023-01-19T23:34:31.111Z,100783.47
2023-01-19T23:36:58.512Z,100784.22
2023-01-19T23:39:25.964Z,100789.66
2023-01-19T23:41:53.257Z,100785.03
2023-01-19T23:44:20.651Z,100788.34
2023-01-19T23:46:48.036Z,100788.25
2023-01-19T23:49:15.970Z,100792.66
2023-01-19T23:51:43.399Z,100792.69
2023-01-19T23:54:12.347Z,100791.34
2023-01-19T23:56:39.744Z,100806.31
2023-01-19T23:59:14.442Z,100801.91
